This is the latest recevied weather packets stored in our database for station/object KK6LZB. If no packets are shown the sender has not sent any weather packets the latest 1 day(s).
| Time | Temp. | Humidity | Pressure | Rain* | Wind** | Luminosity | Snow |
|---|---|---|---|---|---|---|---|
| 1778003406 | 18.89° C | 64% | 1017.3 hPa | 0 mm | 0.89 m/s, 279° | 313 W/m² | - |
| 1778003103 | 18.33° C | 64% | 1017.2 hPa | 0 mm | 0.45 m/s, 9° | 471 W/m² | - |
| 1778002799 | 17.78° C | 65% | 1017.2 hPa | 0 mm | 0.45 m/s, 342° | 390 W/m² | - |
| 1778002495 | 18.33° C | 65% | 1017.3 hPa | 0 mm | 0.45 m/s, 308° | 403 W/m² | - |
| 1778002192 | 17.22° C | 66% | 1017.3 hPa | 0 mm | 2.24 m/s, 242° | 506 W/m² | - |
| 1778001891 | 17.22° C | 68% | 1017.1 hPa | 0 mm | 1.79 m/s, 162° | 521 W/m² | - |
| 1778001590 | 17.22° C | 70% | 1017 hPa | 0 mm | 0.45 m/s, 245° | 359 W/m² | - |
| 1778001287 | 17.22° C | 69% | 1017.1 hPa | 0 mm | 2.24 m/s, 236° | 312 W/m² | - |
| 1778000984 | 17.22° C | 68% | 1017 hPa | 0 mm | 1.79 m/s, 254° | 516 W/m² | - |
| 1778000680 | 16.67° C | 69% | 1016.9 hPa | 0 mm | 1.34 m/s, 266° | 322 W/m² | - |
| 1778000376 | 16.67° C | 72% | 1016.7 hPa | 0 mm | 2.24 m/s, 218° | 312 W/m² | - |
| 1778000072 | 17.22° C | 71% | 1016.8 hPa | 0 mm | 0.45 m/s, 233° | 312 W/m² | - |
| 1777999767 | 18.33° C | 69% | 1016.9 hPa | 0 mm | 1.34 m/s, 279° | 660 W/m² | - |
| 1777999464 | 20° C | 67% | 1016.6 hPa | 0 mm | 1.34 m/s, 185° | 591 W/m² | - |
| 1777999162 | 18.89° C | 69% | 1016.6 hPa | 0 mm | 0 m/s | 556 W/m² | - |
| 1777998861 | 18.89° C | 71% | 1016.5 hPa | 0 mm | 0.45 m/s, 267° | 553 W/m² | - |
| 1777998560 | 17.22° C | 76% | 1016.7 hPa | 0 mm | 0 m/s | 496 W/m² | - |
| 1777998255 | 17.78° C | 74% | 1016.6 hPa | 0 mm | 0.45 m/s, 224° | 281 W/m² | - |
| 1777997952 | 16.67° C | 76% | 1016.2 hPa | 0 mm | 0.45 m/s, 308° | 405 W/m² | - |
| 1777997649 | 16.11° C | 79% | 1016.5 hPa | 0 mm | 0.45 m/s, 159° | 352 W/m² | - |
| 1777997346 | 16.11° C | 79% | 1016.4 hPa | 0 mm | 0.45 m/s, 332° | 187 W/m² | - |
| 1777997044 | 16.11° C | 80% | 1016.5 hPa | 0 mm | 0.45 m/s, 344° | 155 W/m² | - |
| 1777996741 | 15.56° C | 81% | 1016.2 hPa | 0 mm | 0.89 m/s, 248° | 156 W/m² | - |
| 1777996436 | 15° C | 82% | 1016.5 hPa | 0 mm | 0.89 m/s, 201° | 120 W/m² | - |
| 1777996133 | 15° C | 84% | 1016.4 hPa | 0 mm | 0.89 m/s, 185° | 101 W/m² | - |
* Rain latest hour (hover to see other rain measurements)
** Current wind speed in m/s (hover to see current wind gust speed)